createdAt,value
2023-01-31T00:00:14.868Z,87.6
2023-01-31T00:03:14.885Z,87.7
2023-01-31T00:06:14.915Z,87.7
2023-01-31T00:09:14.952Z,87.6
2023-01-31T00:12:14.954Z,87.5
2023-01-31T00:15:14.961Z,87.3
2023-01-31T00:18:14.983Z,87.2
2023-01-31T00:21:15.001Z,86.8
2023-01-31T00:24:15.032Z,86.9
2023-01-31T00:27:15.060Z,86.9
2023-01-31T00:30:15.051Z,86.7
2023-01-31T00:33:15.070Z,86.9
2023-01-31T00:36:15.094Z,86.8
2023-01-31T00:39:15.110Z,86.8
2023-01-31T00:42:15.130Z,86.7
2023-01-31T00:45:15.175Z,86.7
2023-01-31T00:48:15.166Z,86.7
2023-01-31T00:51:15.193Z,86.6
2023-01-31T00:54:15.201Z,86.6
2023-01-31T00:57:15.226Z,85.9
2023-01-31T01:00:15.246Z,86
2023-01-31T01:03:15.301Z,86.1
2023-01-31T01:06:15.294Z,86.4
2023-01-31T01:09:15.304Z,86.8
2023-01-31T01:12:15.318Z,87.1
2023-01-31T01:15:15.346Z,87.3
2023-01-31T01:18:15.385Z,87.5
2023-01-31T01:21:15.408Z,87.7
2023-01-31T01:24:15.391Z,87.8
2023-01-31T01:27:15.413Z,87.6
2023-01-31T01:30:15.426Z,87.4
2023-01-31T01:33:15.444Z,87.2
2023-01-31T01:36:15.463Z,87.2
2023-01-31T01:39:15.505Z,87.4
2023-01-31T01:42:15.502Z,87.3
2023-01-31T01:45:15.523Z,87.3
2023-01-31T01:48:15.536Z,87.3
2023-01-31T01:51:15.562Z,87.1
2023-01-31T01:54:15.583Z,86.7
2023-01-31T01:57:15.629Z,86.8
2023-01-31T02:00:15.618Z,86.9
2023-01-31T02:03:15.633Z,87.2
2023-01-31T02:06:15.661Z,87.5
2023-01-31T02:09:15.673Z,87.8
2023-01-31T02:12:15.677Z,88
2023-01-31T02:15:15.721Z,88.4
2023-01-31T02:18:15.705Z,88.4
2023-01-31T02:21:15.731Z,88.6
2023-01-31T02:24:15.748Z,88.5
2023-01-31T02:27:15.766Z,88.7
2023-01-31T02:30:15.782Z,88.9
2023-01-31T02:33:15.821Z,88.9
2023-01-31T02:36:15.821Z,88.8
2023-01-31T02:39:15.831Z,89.1
2023-01-31T02:42:15.845Z,89.3
2023-01-31T02:45:15.865Z,89.4
2023-01-31T02:48:15.878Z,89.5
2023-01-31T02:51:15.957Z,89.6
2023-01-31T02:54:15.907Z,89.7
2023-01-31T02:57:15.932Z,90
2023-01-31T03:00:15.950Z,90.3
2023-01-31T03:03:15.961Z,90.9
2023-01-31T03:06:15.979Z,91.1
2023-01-31T03:09:16.031Z,91
2023-01-31T03:12:16.017Z,91.2
2023-01-31T03:15:16.031Z,91.3
2023-01-31T03:18:16.046Z,91.1
2023-01-31T03:21:16.061Z,90.8
2023-01-31T03:24:16.075Z,90.7
2023-01-31T03:27:16.741Z,90.4
2023-01-31T03:30:16.195Z,90.3
2023-01-31T03:33:16.135Z,90.3
2023-01-31T03:36:16.679Z,90.3
2023-01-31T03:39:16.394Z,90
2023-01-31T03:42:16.184Z,89.8
2023-01-31T03:45:16.230Z,89.7
2023-01-31T03:48:16.526Z,89.7
2023-01-31T03:51:16.236Z,89.6
2023-01-31T03:54:16.258Z,89.6
2023-01-31T03:57:16.285Z,89.6
2023-01-31T04:00:16.464Z,89.6
2023-01-31T04:03:16.368Z,89.7
2023-01-31T04:06:16.786Z,90
2023-01-31T04:09:16.386Z,90.5
2023-01-31T04:12:16.378Z,91
2023-01-31T04:15:16.401Z,91.1
2023-01-31T04:18:16.421Z,91.5
2023-01-31T04:21:16.466Z,92.1
2023-01-31T04:24:16.459Z,92.3
2023-01-31T04:27:16.481Z,92.3
2023-01-31T04:30:16.494Z,92.4
2023-01-31T04:33:16.518Z,92.4
2023-01-31T04:36:16.563Z,92.3
2023-01-31T04:39:16.595Z,92.3
2023-01-31T04:42:16.575Z,92.2
2023-01-31T04:45:16.597Z,91.9
2023-01-31T04:48:16.616Z,91.8
2023-01-31T04:51:16.633Z,91.8
2023-01-31T04:54:16.678Z,91.7
2023-01-31T04:57:16.700Z,91.6
2023-01-31T05:00:16.682Z,91.5
2023-01-31T05:03:16.698Z,91.4
2023-01-31T05:06:16.710Z,91.3
2023-01-31T05:09:16.740Z,91.2
2023-01-31T05:12:16.746Z,91.1
2023-01-31T05:15:16.786Z,91
2023-01-31T05:18:16.779Z,91.1
2023-01-31T05:21:16.790Z,91
2023-01-31T05:24:16.813Z,90.8
2023-01-31T05:27:16.820Z,90.8
2023-01-31T05:30:16.835Z,90.5
2023-01-31T05:33:16.881Z,90.6
2023-01-31T05:36:16.857Z,90.2
2023-01-31T05:39:16.862Z,90.1
2023-01-31T05:42:16.873Z,89.8
2023-01-31T05:45:16.880Z,89.6
2023-01-31T05:48:16.894Z,89.8
2023-01-31T05:51:16.928Z,89.4
2023-01-31T05:54:16.919Z,89.3
2023-01-31T05:57:16.928Z,89.1
2023-01-31T06:00:16.935Z,89.1
2023-01-31T06:03:17.008Z,88.9
2023-01-31T06:06:16.948Z,88.8
2023-01-31T06:09:16.983Z,88.7
2023-01-31T06:12:16.969Z,88.5
2023-01-31T06:15:17.000Z,88.2
2023-01-31T06:18:16.993Z,88.4
2023-01-31T06:21:17.020Z,88.4
2023-01-31T06:24:17.018Z,88.4
2023-01-31T06:27:17.049Z,88.4
2023-01-31T06:30:17.045Z,88.2
2023-01-31T06:33:17.059Z,88.2
2023-01-31T06:36:19.103Z,88.2
2023-01-31T06:39:17.067Z,88.3
2023-01-31T06:42:17.079Z,88.3
2023-01-31T06:45:17.110Z,88.3
2023-01-31T06:48:17.111Z,88.2
2023-01-31T06:51:17.139Z,88.2
2023-01-31T06:54:17.129Z,88.3
2023-01-31T06:57:17.134Z,88.4
2023-01-31T07:00:17.150Z,88.4
2023-01-31T07:03:17.188Z,88.5
2023-01-31T07:06:17.168Z,88.6
2023-01-31T07:09:17.175Z,88.7
2023-01-31T07:12:17.194Z,88.7
2023-01-31T07:15:17.201Z,88.5
2023-01-31T07:18:17.212Z,88.4
2023-01-31T07:21:17.242Z,88.3
2023-01-31T07:24:17.243Z,88.1
2023-01-31T07:27:17.251Z,88.2
2023-01-31T07:30:17.264Z,88.1
2023-01-31T07:33:17.274Z,88.2
2023-01-31T07:36:17.289Z,88.2
2023-01-31T07:39:17.333Z,88
2023-01-31T07:42:17.333Z,88.1
2023-01-31T07:45:33.216Z,88
2023-01-31T07:48:17.315Z,87.9
2023-01-31T07:51:17.339Z,87.9
2023-01-31T07:54:17.335Z,87.8
2023-01-31T07:57:17.369Z,87.5
2023-01-31T08:00:17.346Z,87.4
2023-01-31T08:03:17.350Z,87.3
2023-01-31T08:06:17.355Z,87
2023-01-31T08:09:17.356Z,87
2023-01-31T08:12:17.375Z,87
2023-01-31T08:15:17.426Z,86.6
2023-01-31T08:18:17.383Z,86.5
2023-01-31T08:21:17.389Z,86.4
2023-01-31T08:24:17.398Z,86.2
2023-01-31T08:27:17.391Z,86.1
2023-01-31T08:30:17.392Z,86.1
2023-01-31T08:33:17.559Z,86
2023-01-31T08:36:17.401Z,85.9
2023-01-31T08:39:17.408Z,85.5
2023-01-31T08:42:17.412Z,85.1
2023-01-31T08:45:17.590Z,85.3
2023-01-31T08:48:17.430Z,85.3
2023-01-31T08:51:17.461Z,85.2
2023-01-31T08:54:17.427Z,85.2
2023-01-31T08:57:17.428Z,85
2023-01-31T09:00:17.426Z,84.8
2023-01-31T09:03:17.435Z,84.3
2023-01-31T09:06:17.445Z,83.9
2023-01-31T09:09:17.484Z,83.7
2023-01-31T09:12:17.459Z,83.3
2023-01-31T09:15:17.487Z,83.5
2023-01-31T09:18:17.462Z,83.2
2023-01-31T09:21:17.462Z,83
2023-01-31T09:24:17.466Z,83.1
2023-01-31T09:27:17.499Z,83.2
2023-01-31T09:30:17.486Z,83.5
2023-01-31T09:33:17.490Z,83.6
2023-01-31T09:36:17.499Z,83.4
2023-01-31T09:39:17.492Z,83.1
2023-01-31T09:42:18.409Z,83
2023-01-31T09:45:17.529Z,82.2
2023-01-31T09:48:17.510Z,81.7
2023-01-31T09:51:17.512Z,81.5
2023-01-31T09:54:17.528Z,81.6
2023-01-31T09:57:17.522Z,81.6
2023-01-31T10:00:17.522Z,81.6
2023-01-31T10:03:17.560Z,82.2
2023-01-31T10:06:17.523Z,82.8
2023-01-31T10:09:17.530Z,83.1
2023-01-31T10:12:17.543Z,84
2023-01-31T10:15:17.545Z,84.3
2023-01-31T10:18:17.564Z,84.2
2023-01-31T10:21:17.588Z,83.6
2023-01-31T10:24:17.564Z,83.2
2023-01-31T10:27:17.577Z,83.8
2023-01-31T10:30:17.620Z,85.6
2023-01-31T10:33:17.577Z,86.7
2023-01-31T10:36:17.622Z,88.1
2023-01-31T10:39:17.613Z,89.5
2023-01-31T10:42:17.578Z,89.9
2023-01-31T10:45:17.760Z,90.8
2023-01-31T10:48:17.586Z,91
2023-01-31T10:51:17.601Z,91.3
2023-01-31T10:54:17.599Z,91.8
2023-01-31T10:57:17.630Z,92.3
2023-01-31T11:00:17.628Z,92.7
2023-01-31T11:03:18.261Z,92.5
2023-01-31T11:06:17.614Z,93
2023-01-31T11:09:17.614Z,93.3
2023-01-31T11:12:17.625Z,93.3
2023-01-31T11:15:17.768Z,93
2023-01-31T11:18:17.635Z,92.9
2023-01-31T11:21:17.635Z,92.4
2023-01-31T11:24:17.649Z,92.1
2023-01-31T11:27:17.645Z,92.1
2023-01-31T11:30:17.648Z,91.9
2023-01-31T11:33:17.690Z,91.7
2023-01-31T11:36:17.655Z,91.8
2023-01-31T11:39:17.658Z,91.8
2023-01-31T11:42:17.666Z,92
2023-01-31T11:45:17.667Z,92.1
2023-01-31T11:48:17.688Z,92.3
2023-01-31T11:51:17.709Z,92.3
2023-01-31T11:54:17.680Z,92.5
2023-01-31T11:57:17.683Z,92.6
2023-01-31T12:00:17.727Z,92.8
2023-01-31T12:03:17.777Z,92.8
2023-01-31T12:06:17.705Z,92.7
2023-01-31T12:09:17.732Z,92.9
2023-01-31T12:12:17.702Z,92.9
2023-01-31T12:15:17.736Z,92.9
2023-01-31T12:18:17.711Z,93
2023-01-31T12:21:17.722Z,92.8
2023-01-31T12:24:17.721Z,92.6
2023-01-31T12:27:17.827Z,92.5
2023-01-31T12:30:17.734Z,92.4
2023-01-31T12:33:17.733Z,92.3
2023-01-31T12:36:17.740Z,92
2023-01-31T12:39:17.755Z,92
2023-01-31T12:42:17.747Z,92
2023-01-31T12:45:17.806Z,91.8
2023-01-31T12:48:17.776Z,92.1
2023-01-31T12:51:17.762Z,92.1
2023-01-31T12:54:17.783Z,92.1
2023-01-31T12:57:17.768Z,91.9
2023-01-31T13:00:17.771Z,92.1
2023-01-31T13:03:17.824Z,92.6
2023-01-31T13:06:17.788Z,93
2023-01-31T13:09:17.792Z,93.2
2023-01-31T13:12:17.795Z,93.6
2023-01-31T13:15:17.866Z,93.5
2023-01-31T13:18:17.808Z,94.1
2023-01-31T13:21:17.840Z,94.1
2023-01-31T13:24:17.814Z,94.3
2023-01-31T13:27:17.817Z,94.4
2023-01-31T13:30:17.825Z,94.5
2023-01-31T13:33:17.833Z,94.7
2023-01-31T13:36:17.838Z,94.7
2023-01-31T13:39:17.862Z,94.8
2023-01-31T13:42:17.841Z,94.8
2023-01-31T13:45:17.974Z,94.9
2023-01-31T13:48:17.851Z,95
2023-01-31T13:51:17.853Z,94.8
2023-01-31T13:54:17.853Z,94.8
2023-01-31T13:57:17.931Z,94.9
2023-01-31T14:00:17.857Z,94.8
2023-01-31T14:03:17.859Z,94.7
2023-01-31T14:06:17.871Z,94.7
2023-01-31T14:09:17.872Z,94.7
2023-01-31T14:12:17.885Z,94.7
2023-01-31T14:15:18.175Z,94.6
2023-01-31T14:18:17.887Z,94.2
2023-01-31T14:21:17.887Z,94.2
2023-01-31T14:24:17.890Z,94
2023-01-31T14:27:17.902Z,94.1
2023-01-31T14:30:17.899Z,94.2
2023-01-31T14:36:17.899Z,94
2023-01-31T14:39:17.904Z,94.1
2023-01-31T14:42:17.902Z,93.9
2023-01-31T14:45:18.091Z,93.7
2023-01-31T14:48:17.911Z,93.7
2023-01-31T14:51:17.945Z,93.5
2023-01-31T14:54:17.937Z,93.2
2023-01-31T14:57:17.940Z,93.4
2023-01-31T15:00:17.989Z,93.4
2023-01-31T15:03:18.014Z,93.3
2023-01-31T15:06:18.000Z,93.3
2023-01-31T15:09:18.032Z,93.2
2023-01-31T15:12:18.016Z,93.2
2023-01-31T15:15:18.361Z,93.1
2023-01-31T15:18:18.025Z,93.1
2023-01-31T15:21:18.024Z,93
2023-01-31T15:24:18.035Z,93.1
2023-01-31T15:27:18.052Z,93
2023-01-31T15:30:18.050Z,92.8
2023-01-31T15:33:18.131Z,92.8
2023-01-31T15:36:18.047Z,92.6
2023-01-31T15:39:18.050Z,92.6
2023-01-31T15:42:18.049Z,92.5
2023-01-31T15:45:18.096Z,92.5
2023-01-31T15:48:18.051Z,92.4
2023-01-31T15:51:18.053Z,92.3
2023-01-31T15:54:18.057Z,92.1
2023-01-31T15:57:18.058Z,92.2
2023-01-31T16:00:18.057Z,92
2023-01-31T16:03:18.087Z,92.2
2023-01-31T16:06:18.061Z,92.1
2023-01-31T16:09:18.066Z,92
2023-01-31T16:12:18.070Z,92.3
2023-01-31T16:15:18.065Z,92.5
2023-01-31T16:18:18.064Z,92.9
2023-01-31T16:21:18.086Z,93.2
2023-01-31T16:24:18.076Z,93.2
2023-01-31T16:27:18.110Z,93.4
2023-01-31T16:30:18.067Z,93.5
2023-01-31T16:33:18.077Z,93.6
2023-01-31T16:36:18.591Z,93.5
2023-01-31T16:39:18.107Z,93.6
2023-01-31T16:42:18.073Z,93.8
2023-01-31T16:45:18.082Z,93.6
2023-01-31T16:48:18.085Z,93.8
2023-01-31T16:51:18.089Z,93.9
2023-01-31T16:54:18.097Z,94
2023-01-31T16:57:18.145Z,93.9
2023-01-31T17:00:18.307Z,93.8
2023-01-31T17:03:18.096Z,93.4
2023-01-31T17:06:18.100Z,92.6
2023-01-31T17:09:18.095Z,92.4
2023-01-31T17:12:18.110Z,91.7
2023-01-31T17:15:18.284Z,91.8
2023-01-31T17:18:18.192Z,91.6
2023-01-31T17:21:18.118Z,91.8
2023-01-31T17:24:18.123Z,91.9
2023-01-31T17:27:18.166Z,92.1
2023-01-31T17:30:18.122Z,92.3
2023-01-31T17:33:18.148Z,92.3
2023-01-31T17:36:18.127Z,92.5
2023-01-31T17:39:18.156Z,92.5
2023-01-31T17:42:18.142Z,92.5
2023-01-31T17:45:18.386Z,92.4
2023-01-31T17:48:26.146Z,92.5
2023-01-31T17:51:18.209Z,92.4
2023-01-31T17:54:18.154Z,92.3
2023-01-31T17:57:18.175Z,92.1
2023-01-31T18:00:18.166Z,92.2
2023-01-31T18:03:18.207Z,92.2
2023-01-31T18:06:18.173Z,92.2
2023-01-31T18:09:18.203Z,92.2
2023-01-31T18:12:18.184Z,92
2023-01-31T18:15:18.189Z,91.9
2023-01-31T18:18:18.194Z,91.7
2023-01-31T18:21:18.202Z,91.6
2023-01-31T18:24:18.203Z,91
2023-01-31T18:27:18.236Z,90.6
2023-01-31T18:30:18.217Z,90.3
2023-01-31T18:33:18.218Z,89.1
2023-01-31T18:36:18.226Z,88.9
2023-01-31T18:39:18.234Z,88.6
2023-01-31T18:42:18.246Z,88.5
2023-01-31T18:45:18.301Z,88.4
2023-01-31T18:48:18.258Z,88.6
2023-01-31T18:51:18.269Z,88.6
2023-01-31T18:54:18.284Z,88.5
2023-01-31T18:57:18.275Z,88.3
2023-01-31T19:00:18.291Z,88
2023-01-31T19:03:18.315Z,87.9
2023-01-31T19:06:18.294Z,87.5
2023-01-31T19:09:18.307Z,87
2023-01-31T19:12:18.316Z,86
2023-01-31T19:15:18.322Z,86
2023-01-31T19:18:18.334Z,85.5
2023-01-31T19:21:18.375Z,84.3
2023-01-31T19:24:18.345Z,84.3
2023-01-31T19:27:18.357Z,84.1
2023-01-31T19:30:18.361Z,84.2
2023-01-31T19:33:18.364Z,84.1
2023-01-31T19:36:18.380Z,84.2
2023-01-31T19:39:18.547Z,84.4
2023-01-31T19:42:18.379Z,84.7
2023-01-31T19:45:22.876Z,83.7
2023-01-31T19:48:18.933Z,83.4
2023-01-31T19:51:18.390Z,83.2
2023-01-31T19:54:18.392Z,82.5
2023-01-31T19:57:18.530Z,82.7
2023-01-31T20:00:18.405Z,82.8
2023-01-31T20:03:18.413Z,83
2023-01-31T20:06:18.426Z,82.4
2023-01-31T20:09:18.419Z,81.9
2023-01-31T20:12:18.421Z,81.7
2023-01-31T20:15:18.524Z,81.7
2023-01-31T20:18:18.434Z,81.5
2023-01-31T20:21:18.436Z,81.8
2023-01-31T20:24:18.442Z,81.2
2023-01-31T20:27:18.452Z,81.2
2023-01-31T20:30:18.574Z,81.7
2023-01-31T20:33:18.493Z,81.5
2023-01-31T20:36:18.462Z,81.4
2023-01-31T20:39:18.469Z,81.3
2023-01-31T20:42:18.471Z,80.9
2023-01-31T20:45:18.477Z,80.4
2023-01-31T20:48:18.480Z,80.5
2023-01-31T20:51:18.515Z,80.4
2023-01-31T20:54:18.491Z,80.3
2023-01-31T20:57:18.499Z,80.4
2023-01-31T21:00:18.498Z,80.2
2023-01-31T21:03:18.502Z,80.3
2023-01-31T21:06:18.505Z,80.5
2023-01-31T21:09:18.534Z,80.5
2023-01-31T21:12:18.510Z,80.5
2023-01-31T21:15:18.516Z,80.4
2023-01-31T21:18:18.528Z,80.5
2023-01-31T21:21:18.536Z,80.3
2023-01-31T21:24:18.537Z,80.4
2023-01-31T21:27:18.626Z,80.4
2023-01-31T21:30:18.575Z,80.3
2023-01-31T21:33:18.547Z,80.7
2023-01-31T21:36:18.558Z,81.1
2023-01-31T21:39:18.555Z,81.3
2023-01-31T21:42:18.569Z,81.6
2023-01-31T21:45:18.594Z,81.5
2023-01-31T21:48:18.577Z,81.4
2023-01-31T21:51:18.571Z,81.6
2023-01-31T21:54:18.583Z,81.8
2023-01-31T21:57:18.579Z,82
2023-01-31T22:00:18.751Z,82.1
2023-01-31T22:03:18.687Z,82.1
2023-01-31T22:06:18.609Z,82.1
2023-01-31T22:09:18.608Z,82.2
2023-01-31T22:12:18.611Z,82.4
2023-01-31T22:15:18.623Z,82.5
2023-01-31T22:18:18.623Z,82.7
2023-01-31T22:21:18.655Z,82.6
2023-01-31T22:24:18.637Z,82.7
2023-01-31T22:27:18.636Z,82.7
2023-01-31T22:30:18.638Z,82.6
2023-01-31T22:33:18.648Z,82.5
2023-01-31T22:36:18.647Z,82.7
2023-01-31T22:39:18.684Z,82.6
2023-01-31T22:42:18.663Z,82.7
2023-01-31T22:45:18.667Z,82.8
2023-01-31T22:48:18.664Z,82.8
2023-01-31T22:51:18.680Z,82.8
2023-01-31T22:54:18.712Z,82.6
2023-01-31T22:57:18.710Z,82.6
2023-01-31T23:00:18.869Z,82.5
2023-01-31T23:03:18.691Z,82
2023-01-31T23:06:18.693Z,81.9
2023-01-31T23:09:18.702Z,81.6
2023-01-31T23:12:18.709Z,81.8
2023-01-31T23:15:18.733Z,81.7
2023-01-31T23:18:18.712Z,81.8
2023-01-31T23:21:18.748Z,81.8
2023-01-31T23:24:18.728Z,81.9
2023-01-31T23:27:18.727Z,82
2023-01-31T23:30:18.836Z,81.9
2023-01-31T23:33:18.760Z,81.9
2023-01-31T23:36:18.742Z,81.9
2023-01-31T23:39:18.747Z,82
2023-01-31T23:42:18.751Z,82
2023-01-31T23:45:18.757Z,82
2023-01-31T23:48:18.764Z,82.1
2023-01-31T23:51:18.795Z,82
2023-01-31T23:54:18.772Z,82
2023-01-31T23:57:18.779Z,82
